Detroit, Michigan
Traffic Map
Current Weather Conditions
Detroit, Michigan
Overcast Light Snow
Overcast
28°
Feels Like: 18°
Wind Chill: 18° Ceiling: 1600
Heat Index: 28° Visibility: 5mi
Dew Point: 25° Wind: 13mph
Humidity: 86% Direction: 190° (S)
Pressure: 29.9in Gusts: 0mph
Raw Report DataCYQG 111828Z 19011KT 5SM -SN FEW008 BKN016 OVC031 M02/M04 A2990 RMK SF1NS4SC3 SLP134
Traffic Incident Summary
Active as of:
Severity:
Category:
InformationThere was an issue retrieving the traffic information for this location. Please try a different location or try again shortly.
Advertisements